Time;durP1;ratioP1;P1;durP2;ratioP2;P2;SDS_P1;SDS_P2;PMS_P1;PMS_P2;Temp;Humidity;BMP_temperature;BMP_pressure;BME280_temperature;BME280_humidity;BME280_pressure;Samples;Min_cycle;Max_cycle;Signal;HPM_P1;HPM_P2
2022/06/22 00:00:13;;;;;;;5.60;4.70;;;;;;;23.36;40.90;93025.66;4994555;28;20017;-86
2022/06/22 00:02:38;;;;;;;6.10;4.80;;;;;;;23.38;40.83;93025.09;4976849;28;20042;-87
2022/06/22 00:05:06;;;;;;;6.35;5.13;;;;;;;23.36;41.35;93025.66;4987961;28;20027;-91
2022/06/22 00:07:42;;;;;;;6.28;5.32;;;;;;;23.37;41.29;93029.16;4987835;28;20134;-86
2022/06/22 00:10:17;;;;;;;8.80;4.95;;;;;;;23.36;41.07;93022.91;5003119;28;20033;-86
2022/06/22 00:12:44;;;;;;;6.35;5.10;;;;;;;23.42;40.69;93025.44;5008225;28;20077;-87
2022/06/22 00:15:31;;;;;;;5.00;4.50;;;;;;;23.37;40.96;93018.84;4952184;28;1128453;-87
2022/06/22 00:17:56;;;;;;;6.03;5.18;;;;;;;23.38;40.87;93019.59;4993356;28;20172;-86
2022/06/22 00:20:26;;;;;;;5.75;4.55;;;;;;;23.37;40.92;93023.63;4986612;28;20493;-86
2022/06/22 00:22:56;;;;;;;5.25;4.57;;;;;;;23.38;40.95;93016.81;4986117;28;20157;-93
2022/06/22 00:25:31;;;;;;;7.05;4.75;;;;;;;23.35;41.18;93020.69;4970463;28;20038;-91
2022/06/22 00:28:29;;;;;;;5.32;4.75;;;;;;;23.37;41.07;93029.88;4972238;28;20026;-86
2022/06/22 00:31:12;;;;;;;5.55;4.75;;;;;;;23.38;41.07;93036.88;4970465;28;20070;-86
2022/06/22 00:33:37;;;;;;;6.80;4.72;;;;;;;23.35;40.93;93043.50;4981324;28;20037;-86
2022/06/22 00:36:18;;;;;;;5.60;4.20;;;;;;;23.35;41.12;93051.78;5006454;28;20038;-86
2022/06/22 00:38:43;;;;;;;5.05;4.32;;;;;;;23.38;40.93;93056.19;5006542;28;20034;-86
2022/06/22 00:41:21;;;;;;;5.10;4.05;;;;;;;23.36;41.20;93056.00;5006331;28;20392;-86
2022/06/22 00:43:47;;;;;;;5.78;4.20;;;;;;;23.34;41.00;93061.31;5005848;28;20037;-86
2022/06/22 00:46:18;;;;;;;5.57;3.97;;;;;;;23.34;40.95;93064.09;4989368;28;20049;-86
2022/06/22 00:48:43;;;;;;;6.40;4.78;;;;;;;23.33;40.88;93061.88;5005806;28;20026;-86
2022/06/22 00:51:14;;;;;;;5.20;4.70;;;;;;;23.38;40.91;93063.72;5005711;28;20168;-86
2022/06/22 00:53:51;;;;;;;5.30;4.25;;;;;;;23.33;41.12;93070.88;4978693;28;20021;-89
2022/06/22 00:56:16;;;;;;;7.40;4.80;;;;;;;23.36;40.94;93077.31;4995609;28;20068;-86
2022/06/22 00:58:48;;;;;;;6.20;4.25;;;;;;;23.32;40.73;93072.19;5026432;28;20064;-86
2022/06/22 01:01:22;;;;;;;5.43;4.50;;;;;;;23.33;40.99;93079.16;5023780;28;20026;-86
2022/06/22 01:04:06;;;;;;;4.50;3.90;;;;;;;23.34;40.89;93086.16;5007620;28;20081;-86
2022/06/22 01:06:35;;;;;;;5.95;3.97;;;;;;;23.33;40.90;93086.69;5007598;28;20030;-93
2022/06/22 01:09:12;;;;;;;4.85;4.03;;;;;;;23.33;41.04;93103.25;5008354;28;20030;-86
2022/06/22 01:14:37;;;;;;;5.20;4.18;;;;;;;23.31;40.88;93087.25;4978925;28;20120;-88
2022/06/22 01:17:03;;;;;;;5.40;3.85;;;;;;;23.32;40.89;93090.75;4992361;28;20112;-86
2022/06/22 01:19:53;;;;;;;5.00;4.43;;;;;;;23.31;40.83;93101.03;4990897;28;20308;-86
2022/06/22 01:22:34;;;;;;;4.10;3.67;;;;;;;23.29;40.68;93106.38;4990743;28;20061;-86
2022/06/22 01:25:13;;;;;;;5.50;4.20;;;;;;;23.32;40.75;93099.75;4991482;28;20022;-86
2022/06/22 01:27:42;;;;;;;4.13;3.60;;;;;;;23.30;40.65;93090.56;4995067;28;20156;-86
2022/06/22 01:30:22;;;;;;;4.80;4.00;;;;;;;23.31;40.63;93090.00;4978926;28;20017;-86
2022/06/22 01:32:47;;;;;;;4.57;3.80;;;;;;;23.32;40.65;93088.00;4994361;28;20481;-89
2022/06/22 01:35:20;;;;;;;6.55;4.25;;;;;;;23.29;40.60;93087.06;5013892;28;20034;-86
2022/06/22 01:37:46;;;;;;;4.50;3.90;;;;;;;23.27;40.82;93086.13;5015395;28;20040;-89
2022/06/22 01:40:22;;;;;;;5.28;4.25;;;;;;;23.28;40.86;93090.38;5030564;28;20033;-86
2022/06/22 01:43:07;;;;;;;4.07;3.65;;;;;;;23.27;40.69;93084.13;5013961;28;20021;-86
2022/06/22 01:45:47;;;;;;;5.95;4.38;;;;;;;23.25;40.66;93084.66;5013457;28;20407;-86
2022/06/22 01:48:17;;;;;;;4.30;3.60;;;;;;;23.22;40.93;93083.00;5015279;28;20491;-86
2022/06/22 01:50:46;;;;;;;5.07;3.60;;;;;;;23.25;40.81;93087.44;5014469;28;20025;-86
2022/06/22 01:53:20;;;;;;;4.28;3.45;;;;;;;23.25;40.91;93084.66;5014148;28;20489;-86
2022/06/22 01:56:02;;;;;;;5.22;3.80;;;;;;;23.27;40.97;93075.84;5014318;28;20132;-85
2022/06/22 01:58:33;;;;;;;4.20;3.63;;;;;;;23.23;40.92;93073.44;5014084;28;20095;-86
2022/06/22 02:01:16;;;;;;;4.07;3.25;;;;;;;23.25;40.86;93070.13;5012477;28;20066;-86
2022/06/22 02:03:45;;;;;;;4.60;3.60;;;;;;;23.24;40.82;93068.66;4994902;28;20377;-86
2022/06/22 02:09:10;;;;;;;4.82;3.50;;;;;;;23.22;40.88;93083.00;4998393;28;20060;-86
2022/06/22 02:11:40;;;;;;;4.63;3.60;;;;;;;23.23;41.04;93081.72;5013719;28;20093;-86
2022/06/22 02:14:16;;;;;;;3.50;3.20;;;;;;;23.26;40.76;93085.41;5013388;28;20637;-86
2022/06/22 02:16:45;;;;;;;4.20;3.30;;;;;;;23.22;40.87;93083.00;5013266;28;20480;-85
2022/06/22 02:19:13;;;;;;;5.00;3.80;;;;;;;23.25;40.96;93068.13;5013537;28;20041;-86
2022/06/22 02:21:46;;;;;;;4.78;3.78;;;;;;;23.18;41.14;93060.56;4993510;28;20165;-93
2022/06/22 02:24:18;;;;;;;6.30;3.05;;;;;;;23.17;40.80;93059.09;4993544;28;20022;-85
2022/06/22 02:27:08;;;;;;;4.03;3.42;;;;;;;23.22;40.87;93057.44;4993456;28;20022;-86
2022/06/22 02:29:39;;;;;;;4.20;3.80;;;;;;;23.20;40.87;93058.00;4995721;28;20333;-86
2022/06/22 02:32:06;;;;;;;3.92;2.95;;;;;;;23.16;40.83;93060.41;4994860;28;20038;-86
2022/06/22 02:34:32;;;;;;;3.80;3.38;;;;;;;23.23;41.04;93053.41;4993183;28;20034;-86
2022/06/22 02:36:58;;;;;;;4.15;3.25;;;;;;;23.17;40.64;93059.09;5008534;28;20022;-86
2022/06/22 02:39:24;;;;;;;3.83;3.28;;;;;;;23.23;41.11;93058.91;4993752;28;20077;-90
2022/06/22 02:44:35;;;;;;;6.93;3.85;;;;;;;23.22;40.98;93044.41;4996064;28;20033;-86
2022/06/22 02:47:23;;;;;;;4.07;3.42;;;;;;;23.22;40.95;93047.16;5007681;28;20033;-86
2022/06/22 02:53:18;;;;;;;5.28;3.45;;;;;;;23.22;40.75;93036.13;4991372;28;20065;-86
2022/06/22 02:55:43;;;;;;;4.57;3.60;;;;;;;23.21;40.91;93036.69;4972831;28;20129;-86
2022/06/22 02:58:21;;;;;;;4.10;3.03;;;;;;;23.23;40.86;93012.78;5016275;28;20112;-86
2022/06/22 03:00:46;;;;;;;4.47;3.33;;;;;;;23.19;40.97;93031.72;5030416;28;20686;-87
2022/06/22 03:03:13;;;;;;;5.07;3.42;;;;;;;23.21;40.81;93025.66;5009867;28;20018;-86
2022/06/22 03:05:39;;;;;;;4.20;3.50;;;;;;;23.20;41.27;93033.19;4993157;28;20041;-86
2022/06/22 03:08:04;;;;;;;5.47;3.55;;;;;;;23.17;41.09;93041.81;4993261;28;20378;-86
2022/06/22 03:10:45;;;;;;;4.35;3.10;;;;;;;23.18;40.90;93044.03;5001941;28;20029;-85
2022/06/22 03:13:10;;;;;;;;;;;;;;;23.22;40.99;93049.19;4996835;28;20543;-86
2022/06/22 03:15:36;;;;;;;3.60;2.95;;;;;;;23.15;41.14;93052.69;5012253;28;19962;-86
2022/06/22 03:18:02;;;;;;;3.45;3.03;;;;;;;23.16;41.05;93043.13;4996120;28;20099;-86
2022/06/22 03:20:31;;;;;;;3.35;3.05;;;;;;;23.17;41.21;93059.09;4996641;28;20052;-86
2022/06/22 03:23:01;;;;;;;3.17;2.88;;;;;;;23.19;41.03;93050.28;5012163;28;20022;-87
2022/06/22 03:25:39;;;;;;;3.37;2.97;;;;;;;23.18;41.28;93044.03;4993053;28;20022;-86
2022/06/22 03:28:07;;;;;;;3.97;2.95;;;;;;;23.15;41.05;93044.41;5009493;28;20021;-89
2022/06/22 03:30:57;;;;;;;3.53;3.10;;;;;;;23.17;41.33;93039.78;4993346;28;20022;-86
2022/06/22 03:33:30;;;;;;;3.25;2.92;;;;;;;23.18;41.22;93032.25;4978067;28;20034;-86
2022/06/22 03:35:59;;;;;;;3.55;2.80;;;;;;;23.18;40.97;93026.75;5011416;28;20026;-92
2022/06/22 03:38:32;;;;;;;3.58;2.75;;;;;;;23.18;41.09;93032.25;5012251;28;20419;-87
2022/06/22 03:40:59;;;;;;;4.03;3.40;;;;;;;23.16;41.28;93029.34;5012554;28;20025;-88
2022/06/22 03:43:31;;;;;;;4.72;2.70;;;;;;;23.16;41.08;93026.59;5014031;28;20040;-85
2022/06/22 03:46:05;;;;;;;4.63;3.17;;;;;;;23.20;41.05;93024.91;4997074;28;20231;-84
2022/06/22 03:48:41;;;;;;;13.70;8.57;;;;;;;23.21;41.07;93031.88;4996469;28;20033;-88
2022/06/22 03:51:19;;;;;;;7.57;3.63;;;;;;;23.22;41.09;93033.38;5013976;28;20030;-85
2022/06/22 03:53:57;;;;;;;18.13;14.32;;;;;;;23.25;41.06;93034.28;5012391;28;20036;-91
2022/06/22 03:56:26;;;;;;;7.43;5.55;;;;;;;23.13;39.33;93044.97;5010268;28;20036;-84
2022/06/22 03:58:52;;;;;;;23.88;4.40;;;;;;;23.08;38.29;93040.34;5012051;28;20033;-84
2022/06/22 04:01:18;;;;;;;6.93;3.40;;;;;;;22.94;37.94;93030.06;4988568;28;20022;-85
2022/06/22 04:03:43;;;;;;;10.82;4.10;;;;;;;22.84;38.07;93027.84;5006412;28;20389;-85
2022/06/22 04:06:15;;;;;;;6.38;2.42;;;;;;;22.72;39.33;93026.69;4988731;28;20027;-83
2022/06/22 04:08:41;;;;;;;9.52;3.13;;;;;;;22.52;39.93;93028.28;4988843;28;20412;-85
2022/06/22 04:11:07;;;;;;;6.25;3.72;;;;;;;22.38;40.00;93034.50;4996170;28;20054;-84
2022/06/22 04:13:46;;;;;;;5.57;3.15;;;;;;;22.35;39.37;93039.06;4991560;28;20040;-84
2022/06/22 04:16:22;;;;;;;5.85;3.45;;;;;;;22.21;39.44;93038.47;4987628;28;20047;-84
2022/06/22 04:19:10;;;;;;;4.85;3.00;;;;;;;22.13;40.59;93026.69;4969220;28;20493;-86
2022/06/22 04:21:41;;;;;;;6.65;2.42;;;;;;;21.89;41.72;93030.59;4987329;28;20034;-86
2022/06/22 04:24:13;;;;;;;;;;;;;;;22.19;40.56;93030.03;4989799;28;20030;-86
2022/06/22 04:27:07;;;;;;;12.52;4.50;;;;;;;21.98;41.86;93034.13;5007255;28;19917;-88
2022/06/22 04:29:34;;;;;;;7.07;3.90;;;;;;;21.94;41.91;93028.97;4954113;28;20735;-86
2022/06/22 04:32:03;;;;;;;13.75;6.18;;;;;;;21.98;41.78;93040.38;4969664;28;20049;-84
2022/06/22 04:34:42;;;;;;;5.93;2.88;;;;;;;21.94;40.83;93020.72;4980986;28;20036;-88
2022/06/22 04:37:13;;;;;;;10.50;4.93;;;;;;;21.91;40.66;93035.56;4976621;28;20405;-87
2022/06/22 04:39:41;;;;;;;41.35;25.83;;;;;;;21.87;40.47;93035.16;4973557;28;20034;-85
2022/06/22 04:42:07;;;;;;;94.53;66.00;;;;;;;21.86;40.80;93037.19;4970109;28;20069;-84
2022/06/22 04:44:42;;;;;;;60.42;35.15;;;;;;;21.99;40.68;93043.84;4951297;28;20026;-84
2022/06/22 04:47:13;;;;;;;51.47;20.35;;;;;;;21.97;40.11;93043.66;4973365;28;20034;-88
2022/06/22 04:49:50;;;;;;;27.08;11.70;;;;;;;21.82;40.05;93045.06;4974244;28;20022;-87
2022/06/22 04:52:26;;;;;;;11.15;7.18;;;;;;;21.83;39.76;93048.56;5003300;28;20109;-86
2022/06/22 04:54:54;;;;;;;15.95;7.30;;;;;;;21.77;39.85;93045.94;4974518;28;20050;-89
2022/06/22 04:57:38;;;;;;;17.15;5.38;;;;;;;21.83;39.91;93052.03;4970727;28;20032;-88
2022/06/22 05:00:11;;;;;;;20.45;5.80;;;;;;;21.80;40.23;93050.38;4988079;28;20119;-86
2022/06/22 05:02:37;;;;;;;26.92;14.48;;;;;;;21.78;40.37;93044.66;4977475;28;20022;-86
2022/06/22 05:05:15;;;;;;;33.78;14.48;;;;;;;21.84;40.24;93047.28;4959113;28;20030;-86
2022/06/22 05:07:41;;;;;;;15.27;7.72;;;;;;;21.83;39.80;93048.56;4983841;28;20037;-88
2022/06/22 05:10:22;;;;;;;25.02;10.88;;;;;;;21.77;40.06;93047.97;4984407;28;20109;-85
2022/06/22 05:13:05;;;;;;;30.13;10.18;;;;;;;21.88;39.95;93053.16;4980393;28;20034;-88
2022/06/22 05:15:36;;;;;;;39.58;12.05;;;;;;;21.85;40.17;93043.97;4973535;28;20173;-90
2022/06/22 05:18:03;;;;;;;22.48;6.78;;;;;;;21.77;39.89;93043.19;4976066;28;20038;-88
2022/06/22 05:20:28;;;;;;;18.80;7.28;;;;;;;21.83;40.48;93054.06;4976803;28;20027;-87
2022/06/22 05:22:55;;;;;;;16.13;7.25;;;;;;;21.83;40.60;93063.03;4973575;28;20037;-88
2022/06/22 05:25:21;;;;;;;14.82;5.57;;;;;;;21.86;40.47;93050.97;4953888;28;20056;-90
2022/06/22 05:28:13;;;;;;;78.90;16.58;;;;;;;21.87;40.85;93059.94;4955299;28;20668;-91
2022/06/22 05:30:43;;;;;;;34.58;7.45;;;;;;;21.85;40.88;93054.25;5004670;28;20045;-90
2022/06/22 05:33:11;;;;;;;89.03;21.90;;;;;;;21.87;40.41;93057.16;4974419;28;20033;-90
2022/06/22 05:35:39;;;;;;;64.80;19.83;;;;;;;21.99;40.54;93066.59;4974582;28;20045;-91
2022/06/22 05:38:07;;;;;;;56.40;15.65;;;;;;;21.92;40.61;93061.78;4966074;28;20042;-92
2022/06/22 05:40:32;;;;;;;72.65;17.17;;;;;;;21.88;40.28;93073.16;4970700;28;20043;-92
2022/06/22 05:43:00;;;;;;;41.35;11.13;;;;;;;21.88;40.39;93073.16;4965018;28;20032;-91
2022/06/22 05:45:29;;;;;;;135.93;30.33;;;;;;;21.90;40.22;93076.09;4993263;28;20027;-92
2022/06/22 05:47:58;;;;;;;121.35;46.13;;;;;;;21.93;40.25;93074.28;4979407;28;20027;-90
2022/06/22 05:50:30;;;;;;;160.35;48.67;;;;;;;21.98;40.37;93075.41;4973353;28;20037;-94
2022/06/22 05:52:58;;;;;;;87.57;47.92;;;;;;;22.06;40.22;93065.22;4952508;28;20045;-93
2022/06/22 05:55:32;;;;;;;76.15;21.60;;;;;;;21.94;40.76;93075.75;4946423;28;20090;-94
2022/06/22 05:58:09;;;;;;;28.13;10.57;;;;;;;21.93;40.96;93068.03;4942591;28;20081;-93
2022/06/22 06:00:42;;;;;;;16.05;9.00;;;;;;;21.87;41.38;93065.44;4974006;28;20038;-93
2022/06/22 06:03:14;;;;;;;42.83;18.70;;;;;;;21.85;41.67;93066.00;4952337;28;21113;-90
2022/06/22 06:05:50;;;;;;;46.45;20.23;;;;;;;21.93;41.66;93062.53;4961450;28;20054;-89
2022/06/22 06:08:23;;;;;;;37.30;17.50;;;;;;;22.04;41.53;93063.00;4949866;28;20031;-89
2022/06/22 06:10:48;;;;;;;35.83;16.10;;;;;;;22.03;41.61;93066.28;4934129;28;20047;-90
2022/06/22 06:13:28;;;;;;;41.95;15.10;;;;;;;22.12;41.74;93066.50;4978318;28;20035;-90
2022/06/22 06:15:58;;;;;;;36.07;14.37;;;;;;;22.19;41.28;93063.06;4976914;28;20057;-96
2022/06/22 06:18:27;;;;;;;33.67;15.10;;;;;;;22.29;40.98;93048.78;4958437;28;20161;-91
2022/06/22 06:21:11;;;;;;;26.75;16.33;;;;;;;22.36;40.97;93048.06;4961338;28;20050;-94
2022/06/22 06:23:40;;;;;;;26.17;14.93;;;;;;;22.45;40.77;93042.06;5011467;28;20038;-91
2022/06/22 06:29:13;;;;;;;26.58;15.25;;;;;;;22.52;40.65;93033.78;5021937;28;20385;-90
2022/06/22 06:31:55;;;;;;;32.45;17.58;;;;;;;22.52;40.80;93028.28;4967752;28;20029;-96
2022/06/22 06:39:29;;;;;;;49.28;24.85;;;;;;;22.61;40.58;93048.34;5038388;28;20073;-91
2022/06/22 06:42:12;;;;;;;43.40;24.60;;;;;;;22.68;40.71;93047.63;5014687;28;20034;-94
2022/06/22 06:44:39;;;;;;;46.90;24.50;;;;;;;22.71;40.49;93050.03;4992602;28;20085;-90
2022/06/22 06:47:13;;;;;;;55.90;32.10;;;;;;;22.71;40.52;93054.78;5002517;28;20037;-94
2022/06/22 06:49:50;;;;;;;63.38;35.88;;;;;;;22.77;40.26;93056.09;5005638;28;20095;-95
2022/06/22 06:52:41;;;;;;;77.00;40.63;;;;;;;22.80;40.57;93055.00;5013453;28;20108;-95
2022/06/22 06:55:12;;;;;;;101.60;57.10;;;;;;;22.80;40.28;93052.25;5027119;28;20137;-92
2022/06/22 06:57:50;;;;;;;93.38;52.78;;;;;;;22.85;40.47;93045.09;5032831;28;20345;-91
2022/06/22 07:00:34;;;;;;;93.45;50.83;;;;;;;22.86;40.43;93041.06;5016779;28;20048;-90
2022/06/22 07:03:00;;;;;;;84.32;47.42;;;;;;;22.88;40.19;93028.22;5003997;28;20033;-92
2022/06/22 07:05:31;;;;;;;285.15;84.13;;;;;;;22.93;40.22;93026.56;5001574;28;20115;-89
2022/06/22 07:08:18;;;;;;;192.30;79.57;;;;;;;22.92;40.34;93027.13;5037608;28;20029;-93
2022/06/22 07:10:56;;;;;;;211.57;86.45;;;;;;;22.97;40.25;93026.91;5003699;28;20032;-92
2022/06/22 07:13:45;;;;;;;410.55;215.40;;;;;;;22.99;40.32;93032.63;5026299;28;20026;-91
2022/06/22 07:16:25;;;;;;;349.13;196.75;;;;;;;23.07;41.01;93036.13;5031349;28;20029;-91
2022/06/22 07:18:58;;;;;;;330.70;184.70;;;;;;;23.11;40.33;93031.00;5009249;28;20033;-92
2022/06/22 07:21:36;;;;;;;334.23;171.27;;;;;;;23.12;40.43;93031.72;5000160;28;20048;-92
2022/06/22 07:24:16;;;;;;;289.98;149.95;;;;;;;23.10;40.22;93034.28;5025317;28;20075;-92
2022/06/22 07:26:49;;;;;;;383.40;178.40;;;;;;;23.14;40.23;93037.44;4997722;28;20029;-89
2022/06/22 07:29:31;;;;;;;368.15;189.35;;;;;;;23.13;40.52;93036.69;5002099;28;20037;-88
2022/06/22 07:32:23;;;;;;;391.35;185.90;;;;;;;23.12;40.09;93042.75;5010939;28;20025;-88
2022/06/22 07:35:01;;;;;;;375.65;204.80;;;;;;;23.16;40.20;93040.38;5004163;28;20022;-90
2022/06/22 07:37:34;;;;;;;335.67;186.00;;;;;;;23.14;39.99;93035.41;5002839;28;20038;-93
2022/06/22 07:40:18;;;;;;;361.15;213.93;;;;;;;23.14;40.30;93016.09;5035696;28;20090;-91
2022/06/22 07:42:48;;;;;;;323.02;181.02;;;;;;;23.15;40.59;93028.59;4977826;28;20064;-91
2022/06/22 07:45:15;;;;;;;328.77;188.30;;;;;;;23.18;40.47;93027.47;4975586;28;20069;-90
2022/06/22 07:47:51;;;;;;;302.83;173.70;;;;;;;23.18;40.63;93019.19;4991228;23;20059;-91
2022/06/22 07:50:26;;;;;;;484.90;221.75;;;;;;;23.23;40.31;93028.59;4985326;28;20025;-90
2022/06/22 07:52:57;;;;;;;336.15;176.60;;;;;;;23.23;40.27;93029.31;5017651;28;20022;-92
2022/06/22 07:55:31;;;;;;;368.38;202.43;;;;;;;23.25;40.05;93035.03;4990151;28;20514;-91
2022/06/22 07:58:15;;;;;;;382.85;216.55;;;;;;;23.22;40.32;93038.88;4995807;28;20045;-89
2022/06/22 08:00:43;;;;;;;369.48;224.43;;;;;;;23.23;40.61;93042.38;4957652;28;20604;-91
2022/06/22 08:03:30;;;;;;;351.95;186.80;;;;;;;23.21;40.65;93050.47;4974169;28;20517;-90
2022/06/22 08:05:58;;;;;;;306.98;164.13;;;;;;;23.20;40.78;93054.50;4992249;28;20057;-87
2022/06/22 08:08:28;;;;;;;302.58;171.68;;;;;;;23.22;40.69;93043.66;4990547;28;20072;-91
2022/06/22 08:11:13;;;;;;;285.52;163.50;;;;;;;23.22;40.90;93038.16;4959823;28;20027;-87
2022/06/22 08:13:53;;;;;;;304.80;176.60;;;;;;;23.24;40.81;93043.84;4999780;28;20070;-86
2022/06/22 08:16:27;;;;;;;357.15;189.70;;;;;;;23.23;40.80;93037.59;4990104;28;20026;-87
2022/06/22 08:18:57;;;;;;;302.60;167.65;;;;;;;23.24;41.05;93046.59;4978174;28;20037;-93
2022/06/22 08:21:22;;;;;;;331.60;164.53;;;;;;;23.24;40.95;93057.63;4961623;28;20037;-89
2022/06/22 08:23:48;;;;;;;286.77;154.00;;;;;;;23.28;40.98;93046.25;4940696;28;20098;-89
2022/06/22 08:26:21;;;;;;;270.13;148.55;;;;;;;23.27;40.98;93051.03;4990247;28;20023;-86
2022/06/22 08:28:47;;;;;;;267.77;150.57;;;;;;;23.29;40.84;93050.47;4977022;28;20025;-89
2022/06/22 08:31:13;;;;;;;287.88;140.45;;;;;;;23.23;41.01;93043.09;4957163;28;20583;-87
2022/06/22 08:33:56;;;;;;;211.50;115.05;;;;;;;23.23;41.44;93039.63;5002916;28;20036;-87
2022/06/22 08:36:26;;;;;;;228.52;111.25;;;;;;;23.23;41.57;93047.88;4967733;28;20038;-88
2022/06/22 08:39:05;;;;;;;190.35;97.72;;;;;;;23.25;41.66;93054.31;4969488;28;20687;-87
2022/06/22 08:41:38;;;;;;;185.20;92.63;;;;;;;23.25;41.84;93053.59;4966609;28;20120;-89
2022/06/22 08:44:13;;;;;;;190.65;90.45;;;;;;;23.25;42.10;93050.84;4974991;28;20030;-89
2022/06/22 08:47:05;;;;;;;155.45;80.03;;;;;;;23.28;42.20;93060.03;4984172;28;20080;-88
2022/06/22 08:49:47;;;;;;;121.25;64.32;;;;;;;23.20;42.36;93058.00;4994531;28;20094;-87
2022/06/22 08:52:37;;;;;;;133.93;69.40;;;;;;;23.19;42.47;93062.03;4950287;28;20062;-90
2022/06/22 08:55:22;;;;;;;108.30;53.40;;;;;;;23.29;42.74;93056.00;4958036;28;20034;-91
2022/06/22 08:58:09;;;;;;;138.35;61.85;;;;;;;23.23;42.91;93058.91;4991251;28;20026;-87
2022/06/22 09:01:20;;;;;;;103.85;52.03;;;;;;;23.19;42.97;93069.56;4993137;28;20030;-89
2022/06/22 09:04:02;;;;;;;136.57;50.97;;;;;;;23.18;43.01;93065.34;4990403;28;20054;-89
2022/06/22 09:06:48;;;;;;;124.55;46.05;;;;;;;23.17;43.28;93067.38;4969181;28;20026;-89
2022/06/22 09:09:34;;;;;;;206.85;97.95;;;;;;;23.16;43.48;93068.69;4978622;28;20035;-87
2022/06/22 09:12:15;;;;;;;53.28;28.75;;;;;;;23.18;43.58;93055.06;4984605;28;20139;-89
2022/06/22 09:15:02;;;;;;;81.35;38.55;;;;;;;23.21;43.29;93062.22;4975796;28;20403;-87
2022/06/22 09:17:44;;;;;;;67.90;28.80;;;;;;;23.22;43.53;93066.47;4969518;28;20031;-89
2022/06/22 09:20:41;;;;;;;95.90;30.88;;;;;;;23.17;43.67;93072.16;4958848;28;20038;-90
2022/06/22 09:23:07;;;;;;;85.43;33.58;;;;;;;23.21;43.54;93067.00;4987168;28;20038;-86
2022/06/22 09:25:47;;;;;;;120.07;35.10;;;;;;;23.18;44.13;93060.56;4995234;28;20082;-91
2022/06/22 09:28:34;;;;;;;102.60;35.50;;;;;;;23.21;44.06;93070.50;4997568;28;20041;-89
2022/06/22 09:31:34;;;;;;;73.95;29.92;;;;;;;23.24;44.26;93074.19;5000100;28;20026;-91
2022/06/22 09:34:09;;;;;;;60.88;25.35;;;;;;;23.25;44.38;93064.63;5007328;23;20050;-92
2022/06/22 09:36:59;;;;;;;73.47;27.67;;;;;;;23.24;44.57;93068.66;5029393;28;20055;-90
2022/06/22 09:39:44;;;;;;;37.65;18.90;;;;;;;23.22;45.16;93068.47;5056152;28;20274;-89
2022/06/22 09:42:16;;;;;;;40.55;15.82;;;;;;;23.23;45.49;93067.94;5034987;28;20064;-90
2022/06/22 09:45:04;;;;;;;34.50;19.17;;;;;;;23.23;45.49;93058.91;5035791;28;20029;-90
2022/06/22 09:48:02;;;;;;;75.68;33.22;;;;;;;23.23;45.57;93056.91;5062503;28;20562;-87
2022/06/22 09:51:08;;;;;;;51.35;25.02;;;;;;;23.21;45.74;93064.25;5047356;28;20036;-88
2022/06/22 09:53:55;;;;;;;41.85;20.73;;;;;;;23.23;45.88;93061.69;5063046;28;20029;-87
2022/06/22 09:56:45;;;;;;;32.25;16.42;;;;;;;23.22;45.84;93057.44;5036558;28;20111;-91
2022/06/22 09:59:56;;;;;;;37.75;15.98;;;;;;;23.22;46.00;93049.91;5057514;28;20028;-92
2022/06/22 10:02:49;;;;;;;54.88;23.85;;;;;;;23.24;45.84;93047.34;5011144;28;20030;-92
2022/06/22 10:05:33;;;;;;;61.90;25.92;;;;;;;23.23;46.02;93053.41;5002883;28;20047;-91
2022/06/22 10:08:12;;;;;;;48.92;22.60;;;;;;;23.24;46.11;93060.41;4972801;28;20153;-94
2022/06/22 10:10:43;;;;;;;50.60;23.70;;;;;;;23.29;45.94;93053.22;4973732;28;20053;-93
2022/06/22 10:13:18;;;;;;;37.13;18.55;;;;;;;23.28;45.83;93058.00;4973139;28;20037;-91
2022/06/22 10:15:58;;;;;;;27.40;15.18;;;;;;;23.31;46.41;93056.91;4989989;28;20026;-92
2022/06/22 10:18:48;;;;;;;23.00;14.38;;;;;;;23.31;46.31;93054.16;4981641;28;20042;-95
2022/06/22 10:21:45;;;;;;;21.25;13.48;;;;;;;23.31;46.33;93061.69;4953496;28;20038;-93
2022/06/22 10:24:29;;;;;;;63.40;18.27;;;;;;;23.34;46.61;93052.31;4968532;28;20481;-93
2022/06/22 10:27:18;;;;;;;41.00;13.88;;;;;;;23.31;47.42;93056.19;4985752;28;20030;-92
2022/06/22 10:30:14;;;;;;;38.50;14.35;;;;;;;23.35;46.84;93051.78;4972217;28;20053;-92
2022/06/22 10:33:02;;;;;;;31.73;12.70;;;;;;;23.36;47.06;93047.72;4979348;28;20073;-92
2022/06/22 10:35:50;;;;;;;25.38;11.27;;;;;;;23.34;47.78;93042.03;5023489;28;20052;-91
2022/06/22 10:38:27;;;;;;;19.40;10.55;;;;;;;23.38;47.71;93047.91;5027385;28;20040;-93
2022/06/22 10:46:44;;;;;;;7.10;5.15;;;;;;;23.41;49.02;93051.56;5067730;28;20095;-92
2022/06/22 10:49:32;;;;;;;12.90;5.28;;;;;;;23.40;49.45;93050.81;5067383;28;20029;-89
2022/06/22 10:52:22;;;;;;;12.52;8.00;;;;;;;23.40;48.50;93045.31;5043729;28;20056;-88
2022/06/22 10:55:07;;;;;;;25.90;11.48;;;;;;;23.42;48.32;93050.28;5049905;28;20029;-89
2022/06/22 10:57:43;;;;;;;31.65;20.33;;;;;;;23.42;48.28;93051.00;5049600;28;20017;-88
2022/06/22 11:00:22;;;;;;;51.88;31.02;;;;;;;23.43;48.44;93040.72;5068030;28;20048;-88
2022/06/22 11:03:13;;;;;;;64.03;29.02;;;;;;;23.48;48.44;93039.78;5050479;28;20052;-88
2022/06/22 11:05:47;;;;;;;77.70;35.17;;;;;;;23.51;48.36;93049.72;5051257;28;20024;-88
2022/06/22 11:08:19;;;;;;;59.53;30.25;;;;;;;23.49;48.12;93047.53;5051835;28;20075;-85
2022/06/22 11:11:07;;;;;;;57.38;30.52;;;;;;;23.49;48.32;93052.31;5055793;28;20013;-95
2022/06/22 11:13:57;;;;;;;50.63;28.60;;;;;;;23.51;48.55;93052.50;4995723;28;20037;-94
2022/06/22 11:16:53;;;;;;;39.05;23.40;;;;;;;23.52;48.65;93054.72;5011350;28;20488;-93
2022/06/22 11:19:37;;;;;;;45.97;24.90;;;;;;;23.53;49.02;93058.22;5008554;28;20038;-94
2022/06/22 11:22:18;;;;;;;42.08;23.40;;;;;;;23.56;49.01;93052.34;4995742;28;20030;-94
2022/06/22 11:25:04;;;;;;;48.33;24.40;;;;;;;23.55;49.16;93047.38;5012545;28;20041;-90
2022/06/22 11:30:56;;;;;;;52.08;21.73;;;;;;;23.60;48.88;93054.00;5009604;28;20052;-90
2022/06/22 11:33:52;;;;;;;58.35;24.00;;;;;;;23.60;49.12;93059.50;4995836;28;20036;-91
2022/06/22 11:36:34;;;;;;;101.60;30.65;;;;;;;23.60;49.16;93060.22;5028463;28;20132;-93
2022/06/22 11:39:38;;;;;;;151.77;63.42;;;;;;;23.55;49.17;93056.38;4999581;28;20042;-90
2022/06/22 11:42:13;;;;;;;121.80;51.88;;;;;;;23.54;49.39;93054.91;4998870;28;20030;-90
2022/06/22 11:47:41;;;;;;;241.95;76.47;;;;;;;23.56;49.43;93060.59;5013222;28;20065;-94
2022/06/22 11:50:30;;;;;;;94.22;40.20;;;;;;;23.54;49.86;93065.94;5038535;28;20772;-90
2022/06/22 11:53:13;;;;;;;114.80;51.65;;;;;;;23.61;49.54;93056.16;5016241;28;20045;-91
2022/06/22 11:55:44;;;;;;;115.63;59.95;;;;;;;23.61;49.48;93055.44;5034664;28;20036;-94
2022/06/22 11:58:10;;;;;;;119.82;55.75;;;;;;;23.64;49.56;93057.09;5038544;28;20028;-89
2022/06/22 12:01:00;;;;;;;123.43;62.33;;;;;;;23.62;49.42;93048.63;5042123;28;20490;-90
2022/06/22 12:03:32;;;;;;;150.20;86.07;;;;;;;23.63;49.43;93052.84;5027812;28;20061;-92
2022/06/22 12:06:35;;;;;;;146.43;76.65;;;;;;;23.63;49.29;93058.38;5049566;28;20504;-92
2022/06/22 12:09:09;;;;;;;106.53;63.45;;;;;;;23.61;49.84;93063.72;5035187;28;20040;-91
2022/06/22 12:12:05;;;;;;;113.38;67.72;;;;;;;23.62;49.91;93070.69;5047697;28;20033;-90
2022/06/22 12:17:32;;;;;;;123.57;70.50;;;;;;;23.66;49.53;93057.28;5065781;28;20032;-91
2022/06/22 12:20:39;;;;;;;151.20;77.13;;;;;;;23.63;49.58;93063.91;5034110;28;20033;-91
2022/06/22 12:23:25;;;;;;;177.18;96.93;;;;;;;23.65;49.80;93053.78;4996953;23;20080;-93
2022/06/22 12:26:18;;;;;;;179.18;97.95;;;;;;;23.64;50.00;93057.81;5026478;28;20053;-91
2022/06/22 12:29:03;;;;;;;151.20;80.00;;;;;;;23.61;49.71;93053.41;5003995;28;20036;-89
2022/06/22 12:32:01;;;;;;;150.98;83.60;;;;;;;23.63;49.76;93047.34;4986736;28;20021;-88
2022/06/22 12:34:31;;;;;;;128.13;75.65;;;;;;;23.65;49.93;93062.06;5034311;28;20040;-87
2022/06/22 12:36:58;;;;;;;128.90;69.28;;;;;;;23.67;50.93;93058.75;5033802;28;20053;-87
2022/06/22 12:39:36;;;;;;;104.20;59.42;;;;;;;23.69;50.18;93059.66;5030081;28;20049;-89